createdAt,value
2023-05-19T00:02:12.667Z,95553.25
2023-05-19T00:05:18.583Z,95550.06
2023-05-19T00:08:22.736Z,95556.34
2023-05-19T00:11:26.936Z,95549.28
2023-05-19T00:14:29.154Z,95558.03
2023-05-19T00:17:31.100Z,95553.59
2023-05-19T00:20:33.241Z,95558.81
2023-05-19T00:23:35.454Z,95546.69
2023-05-19T00:26:37.352Z,95554.72
2023-05-19T00:29:39.344Z,95551.41
2023-05-19T00:32:41.265Z,95551.66
2023-05-19T00:35:43.166Z,95546.53
2023-05-19T00:38:45.066Z,95543.13
2023-05-19T00:41:46.939Z,95550.28
2023-05-19T00:44:48.872Z,95549.63
2023-05-19T00:47:50.853Z,95558.13
2023-05-19T00:51:02.280Z,95545.97
2023-05-19T00:54:04.754Z,95544.34
2023-05-19T00:57:06.952Z,95549.28
2023-05-19T01:00:09.501Z,95542.97
2023-05-19T01:03:12.118Z,95547.44
2023-05-19T01:06:15.097Z,95547.38
2023-05-19T01:09:18.259Z,95546.31
2023-05-19T01:12:20.302Z,95542.19
2023-05-19T01:15:23.984Z,95537.22
2023-05-19T01:18:38.511Z,95536.91
2023-05-19T01:22:14.513Z,95533.06
2023-05-19T01:25:31.584Z,95525.63
2023-05-19T01:29:10.936Z,95529.09
2023-05-19T01:32:16.108Z,95520.53
2023-05-19T01:35:19.187Z,95524.56
2023-05-19T01:38:22.246Z,95529.94
2023-05-19T01:41:25.835Z,95528.44
2023-05-19T01:44:28.897Z,95526.47
2023-05-19T01:47:31.096Z,95539.19
2023-05-19T01:50:33.930Z,95533.34
2023-05-19T01:53:36.357Z,95536.78
2023-05-19T01:56:58.394Z,95535.09
2023-05-19T02:00:12.938Z,95530.56
2023-05-19T02:03:21.847Z,95531.63
2023-05-19T02:06:46.185Z,95533.19
2023-05-19T02:09:56.493Z,95532.81
2023-05-19T02:13:04.471Z,95528.72
2023-05-19T02:16:07.645Z,95527.47
2023-05-19T02:19:22.975Z,95524.16
2023-05-19T02:22:25.348Z,95519.28
2023-05-19T02:25:27.282Z,95520.44
2023-05-19T02:28:29.202Z,95527.28
2023-05-19T02:31:31.212Z,95515.44
2023-05-19T02:34:33.184Z,95519.50
2023-05-19T02:37:35.429Z,95524.31
2023-05-19T02:40:37.314Z,95529.31
2023-05-19T02:43:39.134Z,95525.59
2023-05-19T02:46:41.106Z,95539.31
2023-05-19T02:49:44.236Z,95527.38
2023-05-19T02:52:46.126Z,95535.41
2023-05-19T02:55:48.117Z,95526.59
2023-05-19T02:58:50.032Z,95529.63
2023-05-19T03:01:55.724Z,95527.66
2023-05-19T03:04:57.918Z,95531.38
2023-05-19T03:07:59.792Z,95527.78
2023-05-19T03:11:02.576Z,95531.00
2023-05-19T03:14:04.420Z,95538.31
2023-05-19T03:17:10.327Z,95545.38
2023-05-19T03:20:12.509Z,95525.56
2023-05-19T03:23:14.359Z,95538.47
2023-05-19T03:26:16.220Z,95536.38
2023-05-19T03:29:18.113Z,95530.09
2023-05-19T03:32:20.058Z,95528.25
2023-05-19T03:35:22.062Z,95527.31
2023-05-19T03:38:24.128Z,95529.56
2023-05-19T03:41:26.061Z,95534.38
2023-05-19T03:44:27.918Z,95535.94
2023-05-19T03:47:31.804Z,95529.28
2023-05-19T03:50:34.195Z,95538.25
2023-05-19T03:53:36.228Z,95535.56
2023-05-19T03:56:41.086Z,95529.56
2023-05-19T03:59:44.012Z,95529.16
2023-05-19T04:02:45.949Z,95538.72
2023-05-19T04:05:47.943Z,95539.31
2023-05-19T04:08:57.351Z,95533.50
2023-05-19T04:11:59.852Z,95538.53
2023-05-19T04:15:01.834Z,95539.94
2023-05-19T04:18:03.866Z,95540.88
2023-05-19T04:21:06.034Z,95543.09
2023-05-19T04:24:07.965Z,95550.38
2023-05-19T04:27:12.265Z,95546.88
2023-05-19T04:30:18.525Z,95546.59
2023-05-19T04:33:21.527Z,95549.00
2023-05-19T04:36:24.059Z,95546.97
2023-05-19T04:39:25.943Z,95553.38
2023-05-19T04:42:33.095Z,95536.13
2023-05-19T04:45:37.769Z,95551.16
2023-05-19T04:48:42.776Z,95550.06
2023-05-19T04:51:46.262Z,95547.06
2023-05-19T04:54:48.093Z,95546.34
2023-05-19T04:57:49.901Z,95538.81
2023-05-19T05:00:52.463Z,95539.56
2023-05-19T05:03:59.221Z,95536.94
2023-05-19T05:07:01.325Z,95535.34
2023-05-19T05:10:04.033Z,95539.19
2023-05-19T05:13:06.674Z,95545.59
2023-05-19T05:16:09.332Z,95545.16
2023-05-19T05:19:11.604Z,95529.13
2023-05-19T05:22:13.903Z,95530.78
2023-05-19T05:25:16.477Z,95532.44
2023-05-19T05:28:18.691Z,95545.97
2023-05-19T05:31:33.284Z,95544.31
2023-05-19T05:34:37.993Z,95547.44
2023-05-19T05:37:40.245Z,95536.38
2023-05-19T05:40:42.168Z,95532.06
2023-05-19T05:43:44.124Z,95537.97
2023-05-19T05:46:46.422Z,95537.19
2023-05-19T05:49:48.772Z,95534.06
2023-05-19T05:52:51.088Z,95535.50
2023-05-19T05:55:53.644Z,95538.50
2023-05-19T05:58:55.556Z,95541.72
2023-05-19T06:01:57.522Z,95546.22
2023-05-19T06:04:59.454Z,95559.81
2023-05-19T06:08:01.642Z,95554.41
2023-05-19T06:11:09.050Z,95553.31
2023-05-19T06:14:11.103Z,95562.06
2023-05-19T06:17:13.013Z,95559.91
2023-05-19T06:20:14.952Z,95559.22
2023-05-19T06:23:16.843Z,95569.78
2023-05-19T06:26:18.774Z,95573.22
2023-05-19T06:29:20.727Z,95581.38
2023-05-19T06:32:22.658Z,95581.81
2023-05-19T06:35:24.634Z,95587.69
2023-05-19T06:38:26.670Z,95575.66
2023-05-19T06:41:28.558Z,95577.09
2023-05-19T06:44:30.627Z,95570.44
2023-05-19T06:47:32.652Z,95576.78
2023-05-19T06:50:34.753Z,95575.47
2023-05-19T06:53:36.874Z,95583.38
2023-05-19T06:56:38.925Z,95582.00
2023-05-19T06:59:43.914Z,95578.22
2023-05-19T07:02:45.966Z,95582.50
2023-05-19T07:05:47.946Z,95576.63
2023-05-19T07:08:49.770Z,95575.41
2023-05-19T07:11:52.021Z,95575.50
2023-05-19T07:14:53.844Z,95581.72
2023-05-19T07:17:55.814Z,95579.06
2023-05-19T07:20:58.549Z,95575.47
2023-05-19T07:24:00.461Z,95580.50
2023-05-19T07:27:02.456Z,95582.19
2023-05-19T07:30:04.844Z,95589.25
2023-05-19T07:33:06.988Z,95584.97
2023-05-19T07:36:09.337Z,95590.88
2023-05-19T07:39:11.352Z,95587.03
2023-05-19T07:42:13.275Z,95583.38
2023-05-19T07:45:15.146Z,95594.44
2023-05-19T07:48:18.846Z,95593.09
2023-05-19T07:51:20.928Z,95586.31
2023-05-19T07:54:22.877Z,95583.94
2023-05-19T07:57:24.829Z,95588.75
2023-05-19T08:00:26.867Z,95580.19
2023-05-19T08:03:30.706Z,95587.91
2023-05-19T08:06:32.835Z,95588.81
2023-05-19T08:09:34.694Z,95585.47
2023-05-19T08:12:36.586Z,95582.28
2023-05-19T08:15:38.508Z,95577.47
2023-05-19T08:18:40.493Z,95583.75
2023-05-19T08:21:42.903Z,95582.59
2023-05-19T08:24:45.195Z,95580.69
2023-05-19T08:27:47.064Z,95578.44
2023-05-19T08:30:50.871Z,95580.28
2023-05-19T08:33:52.865Z,95583.16
2023-05-19T08:36:57.783Z,95584.47
2023-05-19T08:39:59.687Z,95582.50
2023-05-19T08:43:01.576Z,95590.78
2023-05-19T08:46:04.120Z,95585.88
2023-05-19T08:49:12.358Z,95582.63
2023-05-19T08:52:23.507Z,95580.72
2023-05-19T08:55:38.783Z,95587.66
2023-05-19T08:58:42.688Z,95586.28
2023-05-19T09:01:46.293Z,95582.91
2023-05-19T09:04:48.843Z,95584.25
2023-05-19T09:07:50.683Z,95589.72
2023-05-19T09:10:52.601Z,95587.06
2023-05-19T09:13:54.601Z,95585.53
2023-05-19T09:16:56.748Z,95583.38
2023-05-19T09:20:03.345Z,95574.13
2023-05-19T09:23:06.049Z,95586.72
2023-05-19T09:26:08.263Z,95582.72
2023-05-19T09:29:17.475Z,95588.72
2023-05-19T09:32:26.896Z,95579.19
2023-05-19T09:35:29.154Z,95573.16
2023-05-19T09:38:31.150Z,95577.19
2023-05-19T09:41:33.336Z,95582.34
2023-05-19T09:44:35.489Z,95584.53
2023-05-19T09:47:38.782Z,95577.25
2023-05-19T09:50:40.770Z,95586.34
2023-05-19T09:53:46.417Z,95584.22
2023-05-19T09:57:01.550Z,95583.09
2023-05-19T10:00:12.486Z,95586.41
2023-05-19T10:03:16.556Z,95579.31
2023-05-19T10:06:19.189Z,95577.19
2023-05-19T10:09:27.410Z,95579.09
2023-05-19T10:12:31.179Z,95578.28
2023-05-19T10:15:40.706Z,95574.63
2023-05-19T10:18:46.265Z,95573.44
2023-05-19T10:21:48.676Z,95572.66
2023-05-19T10:24:50.790Z,95575.72
2023-05-19T10:28:01.410Z,95575.00
2023-05-19T10:31:06.708Z,95572.44
2023-05-19T10:34:37.600Z,95580.13
2023-05-19T10:38:10.596Z,95581.94
2023-05-19T10:42:08.189Z,95584.00
2023-05-19T10:45:21.019Z,95577.72
2023-05-19T10:48:25.768Z,95570.56
2023-05-19T10:51:37.258Z,95574.69
2023-05-19T10:54:46.915Z,95569.38
2023-05-19T10:57:58.274Z,95576.16
2023-05-19T11:01:02.918Z,95569.72
2023-05-19T11:04:07.533Z,95573.25
2023-05-19T11:07:10.529Z,95564.63
2023-05-19T11:10:12.806Z,95572.00
2023-05-19T11:13:23.668Z,95576.66
2023-05-19T11:16:34.879Z,95567.03
2023-05-19T11:19:36.996Z,95566.34
2023-05-19T11:22:40.094Z,95566.97
2023-05-19T11:25:47.274Z,95574.38
2023-05-19T11:28:52.222Z,95579.03
2023-05-19T11:31:56.086Z,95563.78
2023-05-19T11:34:58.191Z,95571.31
2023-05-19T11:38:01.726Z,95573.19
2023-05-19T11:41:04.357Z,95569.16
2023-05-19T11:44:11.327Z,95572.44
2023-05-19T11:47:17.235Z,95575.63
2023-05-19T11:50:20.340Z,95569.03
2023-05-19T11:53:23.284Z,95572.63
2023-05-19T11:56:25.188Z,95566.97
2023-05-19T11:59:35.958Z,95560.88
2023-05-19T12:02:38.283Z,95562.03
2023-05-19T12:05:45.553Z,95559.72
2023-05-19T12:08:47.873Z,95558.28
2023-05-19T12:11:50.995Z,95557.03
2023-05-19T12:14:53.381Z,95552.69
2023-05-19T12:18:00.832Z,95546.13
2023-05-19T12:21:03.071Z,95552.56
2023-05-19T12:24:06.512Z,95541.41
2023-05-19T12:27:13.672Z,95547.69
2023-05-19T12:30:17.095Z,95532.78
2023-05-19T12:33:19.792Z,95539.72
2023-05-19T12:36:25.210Z,95540.66
2023-05-19T12:39:27.642Z,95530.91
2023-05-19T12:42:31.373Z,95524.78
2023-05-19T12:45:37.446Z,95524.47
2023-05-19T12:48:47.039Z,95532.63
2023-05-19T12:51:53.814Z,95520.91
2023-05-19T12:55:05.174Z,95521.41
2023-05-19T12:58:10.875Z,95535.88
2023-05-19T13:01:20.806Z,95533.84
2023-05-19T13:04:23.252Z,95524.28
2023-05-19T13:07:25.538Z,95521.63
2023-05-19T13:10:28.623Z,95542.97
2023-05-19T13:13:30.639Z,95532.09
2023-05-19T13:16:34.826Z,95515.03
2023-05-19T13:19:36.871Z,95518.78
2023-05-19T13:22:38.780Z,95519.91
2023-05-19T13:25:42.146Z,95517.56
2023-05-19T13:28:44.160Z,95509.41
2023-05-19T13:31:46.284Z,95514.44
2023-05-19T13:34:48.134Z,95504.66
2023-05-19T13:37:50.270Z,95509.38
2023-05-19T13:40:52.156Z,95500.78
2023-05-19T13:43:54.033Z,95501.63
2023-05-19T13:46:56.128Z,95501.31
2023-05-19T13:49:58.157Z,95493.69
2023-05-19T13:53:00.203Z,95494.16
2023-05-19T13:56:02.556Z,95499.31
2023-05-19T13:59:04.936Z,95501.28
2023-05-19T14:02:07.219Z,95500.47
2023-05-19T14:05:09.379Z,95498.50
2023-05-19T14:08:11.648Z,95492.63
2023-05-19T14:11:20.014Z,95500.00
2023-05-19T14:14:21.830Z,95498.91
2023-05-19T14:17:24.062Z,95497.22
2023-05-19T14:20:27.858Z,95499.41
2023-05-19T14:23:32.375Z,95493.69
2023-05-19T14:26:34.275Z,95506.22
2023-05-19T14:29:36.123Z,95501.06
2023-05-19T14:32:38.077Z,95503.41
2023-05-19T14:35:40.506Z,95501.75
2023-05-19T14:38:42.374Z,95506.91
2023-05-19T14:41:44.335Z,95504.22
2023-05-19T14:44:46.164Z,95512.63
2023-05-19T14:47:48.151Z,95506.53
2023-05-19T14:50:50.316Z,95508.47
2023-05-19T14:53:52.228Z,95508.03
2023-05-19T14:56:54.153Z,95496.19
2023-05-19T14:59:56.124Z,95500.16
2023-05-19T15:02:58.037Z,95501.28
2023-05-19T15:06:00.180Z,95497.31
2023-05-19T15:09:02.103Z,95500.16
2023-05-19T15:12:03.991Z,95497.00
2023-05-19T15:15:06.471Z,95508.78
2023-05-19T15:18:08.468Z,95502.16
2023-05-19T15:21:10.424Z,95504.16
2023-05-19T15:24:12.451Z,95496.69
2023-05-19T15:27:14.614Z,95496.06
2023-05-19T15:30:16.576Z,95484.47
2023-05-19T15:33:18.514Z,95483.84
2023-05-19T15:36:20.603Z,95483.00
2023-05-19T15:39:22.467Z,95479.41
2023-05-19T15:42:24.425Z,95484.41
2023-05-19T15:45:26.450Z,95492.63
2023-05-19T15:48:29.158Z,95488.56
2023-05-19T15:51:31.645Z,95489.91
2023-05-19T15:54:33.503Z,95487.81
2023-05-19T15:57:35.314Z,95484.84
2023-05-19T16:00:37.420Z,95482.25
2023-05-19T16:03:39.367Z,95487.69
2023-05-19T16:06:41.288Z,95493.19
2023-05-19T16:09:43.209Z,95495.03
2023-05-19T16:12:45.080Z,95496.94
2023-05-19T16:15:47.539Z,95485.00
2023-05-19T16:18:49.496Z,95486.06
2023-05-19T16:21:51.374Z,95486.06
2023-05-19T16:24:53.249Z,95498.44
2023-05-19T16:27:55.129Z,95487.31
2023-05-19T16:31:00.863Z,95488.00
2023-05-19T16:34:02.757Z,95492.84
2023-05-19T16:37:04.878Z,95493.13
2023-05-19T16:40:07.539Z,95491.97
2023-05-19T16:43:09.441Z,95498.00
2023-05-19T16:46:12.345Z,95496.81
2023-05-19T16:49:14.310Z,95499.59
2023-05-19T16:52:16.317Z,95502.63
2023-05-19T16:55:20.100Z,95503.00
2023-05-19T16:58:22.081Z,95514.13
2023-05-19T17:01:24.198Z,95515.16
2023-05-19T17:04:27.544Z,95505.44
2023-05-19T17:07:31.220Z,95516.06
2023-05-19T17:10:33.445Z,95511.19
2023-05-19T17:13:36.498Z,95508.28
2023-05-19T17:16:38.353Z,95506.47
2023-05-19T17:19:40.498Z,95519.09
2023-05-19T17:22:42.369Z,95512.72
2023-05-19T17:25:44.324Z,95521.75
2023-05-19T17:28:47.718Z,95524.47
2023-05-19T17:31:50.797Z,95514.94
2023-05-19T17:34:52.823Z,95529.66
2023-05-19T17:37:55.381Z,95530.53
2023-05-19T17:41:01.774Z,95528.69
2023-05-19T17:44:04.161Z,95537.41
2023-05-19T17:47:08.080Z,95528.81
2023-05-19T17:50:10.399Z,95535.50
2023-05-19T17:53:12.539Z,95540.94
2023-05-19T17:56:14.636Z,95536.25
2023-05-19T17:59:16.680Z,95539.38
2023-05-19T18:02:19.277Z,95546.00
2023-05-19T18:05:21.541Z,95553.44
2023-05-19T18:08:23.882Z,95549.09
2023-05-19T18:11:26.580Z,95559.22
2023-05-19T18:14:28.576Z,95555.28
2023-05-19T18:17:30.496Z,95558.59
2023-05-19T18:20:33.958Z,95559.22
2023-05-19T18:23:36.171Z,95565.78
2023-05-19T18:26:41.809Z,95561.91
2023-05-19T18:29:43.806Z,95559.84
2023-05-19T18:32:45.737Z,95560.03
2023-05-19T18:35:47.713Z,95559.22
2023-05-19T18:38:50.115Z,95566.44
2023-05-19T18:41:52.028Z,95555.28
2023-05-19T18:44:53.972Z,95568.69
2023-05-19T18:47:56.358Z,95568.88
2023-05-19T18:50:58.266Z,95567.00
2023-05-19T18:54:00.177Z,95573.19
2023-05-19T18:57:03.570Z,95586.16
2023-05-19T19:00:06.112Z,95587.00
2023-05-19T19:03:10.327Z,95590.91
2023-05-19T19:06:12.709Z,95593.59
2023-05-19T19:09:14.943Z,95597.84
2023-05-19T19:12:18.293Z,95589.81
2023-05-19T19:15:21.328Z,95589.38
2023-05-19T19:18:23.259Z,95595.75
2023-05-19T19:21:25.856Z,95586.84
2023-05-19T19:24:28.568Z,95585.41
2023-05-19T19:27:31.544Z,95584.16
2023-05-19T19:30:33.600Z,95594.63
2023-05-19T19:33:35.642Z,95589.00
2023-05-19T19:36:37.490Z,95589.50
2023-05-19T19:39:39.530Z,95587.25
2023-05-19T19:42:43.416Z,95588.81
2023-05-19T19:45:48.062Z,95587.59
2023-05-19T19:48:58.609Z,95588.16
2023-05-19T19:52:00.636Z,95589.50
2023-05-19T19:55:02.862Z,95593.13
2023-05-19T19:58:04.830Z,95597.25
2023-05-19T20:01:08.216Z,95593.00
2023-05-19T20:04:10.313Z,95600.56
2023-05-19T20:07:12.658Z,95597.13
2023-05-19T20:10:14.516Z,95598.47
2023-05-19T20:13:17.280Z,95601.66
2023-05-19T20:16:19.698Z,95597.47
2023-05-19T20:19:21.867Z,95592.97
2023-05-19T20:22:23.897Z,95596.25
2023-05-19T20:25:26.205Z,95595.72
2023-05-19T20:28:28.105Z,95598.59
2023-05-19T20:31:30.642Z,95600.81
2023-05-19T20:34:32.653Z,95606.53
2023-05-19T20:37:34.649Z,95599.38
2023-05-19T20:40:37.969Z,95589.50
2023-05-19T20:43:40.096Z,95587.03
2023-05-19T20:46:45.610Z,95576.69
2023-05-19T20:49:48.796Z,95583.00
2023-05-19T20:53:04.604Z,95579.97
2023-05-19T20:56:10.676Z,95570.22
2023-05-19T20:59:12.939Z,95590.44
2023-05-19T21:02:20.189Z,95573.00
2023-05-19T21:05:23.228Z,95568.72
2023-05-19T21:08:31.671Z,95568.47
2023-05-19T21:11:39.316Z,95578.72
2023-05-19T21:14:41.605Z,95584.03
2023-05-19T21:17:57.990Z,95576.06
2023-05-19T21:21:10.234Z,95586.25
2023-05-19T21:24:13.251Z,95589.84
2023-05-19T21:27:15.725Z,95585.03
2023-05-19T21:30:18.708Z,95579.16
2023-05-19T21:33:20.868Z,95578.94
2023-05-19T21:36:29.932Z,95593.78
2023-05-19T21:39:32.131Z,95568.28
2023-05-19T21:42:35.940Z,95570.94
2023-05-19T21:45:38.013Z,95587.44
2023-05-19T21:48:44.781Z,95591.19
2023-05-19T21:51:49.685Z,95589.91
2023-05-19T21:54:56.197Z,95599.94
2023-05-19T21:58:00.874Z,95600.56
2023-05-19T22:01:04.665Z,95598.16
2023-05-19T22:04:10.350Z,95602.59
2023-05-19T22:07:12.276Z,95588.19
2023-05-19T22:10:14.197Z,95595.94
2023-05-19T22:13:16.110Z,95603.69
2023-05-19T22:16:18.019Z,95595.03
2023-05-19T22:19:20.074Z,95592.31
2023-05-19T22:22:24.423Z,95594.72
2023-05-19T22:25:26.369Z,95589.63
2023-05-19T22:28:28.229Z,95591.72
2023-05-19T22:31:30.082Z,95594.97
2023-05-19T22:34:32.061Z,95591.00
2023-05-19T22:37:34.208Z,95584.22
2023-05-19T22:40:36.266Z,95582.75
2023-05-19T22:43:38.287Z,95586.81
2023-05-19T22:46:40.098Z,95581.00
2023-05-19T22:49:42.625Z,95585.16
2023-05-19T22:52:44.441Z,95584.19
2023-05-19T22:55:46.524Z,95584.56
2023-05-19T22:58:48.450Z,95576.09
2023-05-19T23:01:50.561Z,95567.41
2023-05-19T23:04:52.494Z,95565.53
2023-05-19T23:07:54.352Z,95568.13
2023-05-19T23:11:00.612Z,95567.16
2023-05-19T23:14:02.581Z,95568.00
2023-05-19T23:17:04.720Z,95571.78
2023-05-19T23:20:07.383Z,95561.75
2023-05-19T23:23:09.287Z,95552.84
2023-05-19T23:26:13.416Z,95558.31
2023-05-19T23:29:15.346Z,95561.75
2023-05-19T23:32:17.257Z,95567.06
2023-05-19T23:35:20.135Z,95565.06
2023-05-19T23:38:22.497Z,95556.19
2023-05-19T23:41:24.314Z,95561.16
2023-05-19T23:44:27.300Z,95558.66
2023-05-19T23:47:29.242Z,95553.31
2023-05-19T23:50:31.190Z,95550.09
2023-05-19T23:53:33.011Z,95550.94
2023-05-19T23:56:34.954Z,95537.16
2023-05-19T23:59:36.840Z,95545.81
